createdAt,value
2018-02-11T00:00:05.485Z,2.27
2018-02-11T00:01:05.493Z,2.34
2018-02-11T00:02:05.752Z,2.35
2018-02-11T00:03:05.764Z,2.34
2018-02-11T00:04:05.781Z,2.28
2018-02-11T00:05:05.820Z,2.31
2018-02-11T00:06:05.568Z,2.28
2018-02-11T00:07:05.836Z,2.35
2018-02-11T00:08:05.858Z,2.34
2018-02-11T00:09:05.592Z,2.31
2018-02-11T00:10:05.616Z,2.34
2018-02-11T00:11:05.939Z,2.31
2018-02-11T00:13:05.923Z,2.43
2018-02-11T00:14:05.938Z,2.43
2018-02-11T00:15:20.619Z,2.39
2018-02-11T00:16:05.939Z,2.35
2018-02-11T00:17:20.379Z,2.43
2018-02-11T00:18:05.988Z,2.41
2018-02-11T00:20:05.765Z,2.41
2018-02-11T00:21:06.029Z,2.43
2018-02-11T00:22:06.035Z,2.38
2018-02-11T00:23:05.541Z,2.35
2018-02-11T00:24:06.065Z,2.43
2018-02-11T00:25:05.829Z,2.34
2018-02-11T00:26:06.086Z,2.43
2018-02-11T00:27:05.848Z,2.39
2018-02-11T00:28:05.878Z,2.38
2018-02-11T00:29:06.121Z,2.42
2018-02-11T00:30:06.158Z,2.36
2018-02-11T00:31:20.825Z,2.3
2018-02-11T00:32:05.927Z,2.42
2018-02-11T00:33:06.194Z,2.3
2018-02-11T00:34:06.200Z,2.31
2018-02-11T00:35:06.223Z,2.31
2018-02-11T00:36:06.230Z,2.38
2018-02-11T00:37:05.999Z,2.31
2018-02-11T00:38:06.251Z,2.34
2018-02-11T00:39:06.266Z,2.36
2018-02-11T00:40:20.952Z,2.31
2018-02-11T00:41:06.319Z,2.41
2018-02-11T00:42:06.305Z,2.28
2018-02-11T00:43:06.074Z,2.28
2018-02-11T00:44:06.342Z,2.28
2018-02-11T00:45:06.348Z,2.35
2018-02-11T00:46:20.782Z,2.24
2018-02-11T00:47:06.384Z,2.3
2018-02-11T00:48:06.395Z,2.27
2018-02-11T00:49:06.148Z,2.36
2018-02-11T00:50:06.427Z,2.24
2018-02-11T00:51:06.192Z,2.25
2018-02-11T00:52:06.451Z,2.27
2018-02-11T00:53:06.474Z,2.24
2018-02-11T00:54:06.486Z,2.23
2018-02-11T00:55:06.251Z,2.3
2018-02-11T00:56:06.249Z,2.35
2018-02-11T00:57:06.510Z,2.31
2018-02-11T00:58:06.547Z,2.21
2018-02-11T01:00:06.569Z,2.21
2018-02-11T01:01:21.252Z,2.23
2018-02-11T01:02:06.340Z,2.18
2018-02-11T01:03:21.274Z,2.2
2018-02-11T01:04:06.352Z,2.2
2018-02-11T01:05:06.402Z,2.24
2018-02-11T01:06:06.637Z,2.16
2018-02-11T01:07:06.651Z,2.28
2018-02-11T01:08:06.685Z,2.17
2018-02-11T01:09:06.685Z,2.18
2018-02-11T01:10:06.432Z,2.16
2018-02-11T01:11:21.378Z,2.14
2018-02-11T01:12:06.728Z,2.12
2018-02-11T01:13:06.497Z,2.17
2018-02-11T01:14:06.506Z,2.07
2018-02-11T01:15:06.769Z,2.12
2018-02-11T01:16:06.795Z,2.09
2018-02-11T01:17:21.452Z,2.16
2018-02-11T01:18:21.470Z,2.1
2018-02-11T01:19:06.829Z,2.18
2018-02-11T01:20:06.852Z,2.14
2018-02-11T01:21:06.851Z,2.28
2018-02-11T01:22:06.874Z,2.07
2018-02-11T01:23:06.878Z,2.14
2018-02-11T01:24:06.907Z,2.2
2018-02-11T01:25:06.896Z,2.23
2018-02-11T01:26:06.935Z,2.23
2018-02-11T01:28:07.044Z,2.14
2018-02-11T01:29:06.961Z,2.17
2018-02-11T01:30:06.717Z,2.09
2018-02-11T01:31:06.996Z,2.18
2018-02-11T01:32:07.007Z,2.17
2018-02-11T01:33:07.019Z,2.23
2018-02-11T01:35:07.043Z,2.21
2018-02-11T01:36:21.727Z,2.1
2018-02-11T01:37:07.054Z,2.14
2018-02-11T01:38:07.094Z,2.2
2018-02-11T01:39:07.077Z,2.2
2018-02-11T01:40:07.103Z,2.1
2018-02-11T01:41:06.858Z,2.14
2018-02-11T01:44:06.922Z,2.14
2018-02-11T01:45:07.179Z,2.1
2018-02-11T01:46:07.179Z,2.1
2018-02-11T01:47:06.697Z,2.1
2018-02-11T01:48:07.227Z,2.18
2018-02-11T01:49:07.249Z,2.25
2018-02-11T01:50:21.913Z,2.27
2018-02-11T01:51:07.247Z,2.21
2018-02-11T01:52:07.256Z,2.36
2018-02-11T01:53:07.031Z,2.31
2018-02-11T01:54:07.303Z,2.25
2018-02-11T01:55:21.727Z,2.24
2018-02-11T01:56:07.082Z,2.3
2018-02-11T01:57:07.337Z,2.31
2018-02-11T01:58:07.103Z,2.35
2018-02-11T01:59:07.363Z,2.28
2018-02-11T02:00:07.128Z,2.3
2018-02-11T02:01:07.149Z,2.25
2018-02-11T02:02:22.087Z,2.31
2018-02-11T02:03:07.419Z,2.35
2018-02-11T02:04:07.174Z,2.31
2018-02-11T02:05:21.868Z,2.35
2018-02-11T02:06:22.134Z,2.25
2018-02-11T02:07:07.487Z,2.3
2018-02-11T02:08:07.510Z,2.28
2018-02-11T02:09:07.514Z,2.36
2018-02-11T02:10:07.528Z,2.36
2018-02-11T02:11:07.532Z,2.35
2018-02-11T02:12:07.292Z,2.36
2018-02-11T02:13:07.292Z,2.38
2018-02-11T02:14:07.572Z,2.31
2018-02-11T02:15:07.326Z,2.25
2018-02-11T02:16:07.587Z,2.35
2018-02-11T02:17:07.618Z,2.35
2018-02-11T02:18:07.355Z,2.3
2018-02-11T02:19:07.662Z,2.34
2018-02-11T02:20:07.651Z,2.31
2018-02-11T02:21:22.349Z,2.35
2018-02-11T02:22:07.434Z,2.41
2018-02-11T02:23:07.428Z,2.35
2018-02-11T02:24:22.399Z,2.31
2018-02-11T02:25:07.469Z,2.31
2018-02-11T02:26:07.485Z,2.28
2018-02-11T02:27:07.491Z,2.31
2018-02-11T02:28:07.510Z,2.25
2018-02-11T02:29:22.443Z,2.28
2018-02-11T02:30:07.557Z,2.17
2018-02-11T02:31:07.814Z,2.2
2018-02-11T02:32:07.550Z,2.23
2018-02-11T02:33:07.840Z,2.25
2018-02-11T02:35:07.616Z,2.27
2018-02-11T02:36:07.869Z,2.31
2018-02-11T02:37:07.888Z,2.23
2018-02-11T02:38:07.904Z,2.24
2018-02-11T02:39:07.893Z,2.27
2018-02-11T02:40:07.427Z,2.3
2018-02-11T02:41:07.723Z,2.24
2018-02-11T02:42:22.364Z,2.23
2018-02-11T02:43:07.733Z,2.3
2018-02-11T02:44:07.737Z,2.2
2018-02-11T02:45:07.751Z,2.27
2018-02-11T02:46:07.769Z,2.24
2018-02-11T02:47:07.771Z,2.31
2018-02-11T02:48:08.044Z,2.36
2018-02-11T02:51:07.808Z,2.28
2018-02-11T02:52:07.838Z,2.3
2018-02-11T02:53:22.778Z,2.2
2018-02-11T02:55:08.155Z,2.12
2018-02-11T02:56:07.906Z,2.14
2018-02-11T02:57:08.172Z,2.16
2018-02-11T02:58:07.937Z,2.02
2018-02-11T02:59:08.208Z,2.12
2018-02-11T03:00:08.222Z,2.14
2018-02-11T03:01:07.964Z,2.21
2018-02-11T03:02:07.705Z,2.21
2018-02-11T03:03:07.991Z,2.07
2018-02-11T03:04:08.251Z,2.14
2018-02-11T03:05:08.020Z,2.14
2018-02-11T03:06:08.031Z,2.05
2018-02-11T03:07:08.050Z,2.14
2018-02-11T03:08:08.064Z,2.14
2018-02-11T03:09:22.991Z,2.06
2018-02-11T03:10:08.339Z,2.12
2018-02-11T03:11:07.852Z,2.03
2018-02-11T03:12:08.104Z,1.95
2018-02-11T03:13:08.397Z,2.07
2018-02-11T03:14:08.450Z,2.03
2018-02-11T03:15:08.150Z,2.12
2018-02-11T03:16:08.424Z,2.09
2018-02-11T03:17:22.839Z,2.2
2018-02-11T03:18:08.454Z,2.2
2018-02-11T03:19:08.440Z,2.2
2018-02-11T03:20:08.482Z,2.09
2018-02-11T03:21:08.486Z,2.12
2018-02-11T03:22:08.497Z,2.09
2018-02-11T03:23:08.526Z,2.1
2018-02-11T03:24:08.528Z,2.18
2018-02-11T03:25:23.218Z,2.21
2018-02-11T03:26:08.563Z,2.34
2018-02-11T03:27:08.414Z,2.3
2018-02-11T03:28:08.320Z,2.17
2018-02-11T03:29:08.343Z,2.25
2018-02-11T03:30:08.360Z,2.28
2018-02-11T03:31:23.290Z,2.25
2018-02-11T03:32:23.315Z,2.3
2018-02-11T03:33:08.640Z,2.25
2018-02-11T03:34:08.405Z,2.23
2018-02-11T03:35:08.656Z,2.23
2018-02-11T03:36:08.690Z,2.23
2018-02-11T03:37:08.713Z,2.09
2018-02-11T03:38:23.375Z,2.1
2018-02-11T03:39:08.480Z,2.14
2018-02-11T03:40:08.751Z,2.1
2018-02-11T03:41:23.418Z,2.07
2018-02-11T03:42:08.523Z,2.14
2018-02-11T03:43:08.535Z,2.12
2018-02-11T03:44:08.561Z,2.09
2018-02-11T03:45:23.224Z,2.1
2018-02-11T03:46:08.827Z,2.09
2018-02-11T03:47:23.506Z,2.23
2018-02-11T03:48:08.866Z,2.16
2018-02-11T03:49:23.530Z,2.09
2018-02-11T03:50:08.961Z,2.23
2018-02-11T03:51:08.631Z,2.18
2018-02-11T03:52:08.914Z,2.2
2018-02-11T03:53:08.394Z,2.16
2018-02-11T03:54:08.932Z,2.24
2018-02-11T03:55:08.700Z,2.31
2018-02-11T03:56:23.624Z,2.35
2018-02-11T03:57:08.973Z,2.36
2018-02-11T03:58:08.965Z,2.21
2018-02-11T03:59:09.018Z,2.2
2018-02-11T04:00:08.743Z,2.17
2018-02-11T04:01:23.697Z,2.07
2018-02-11T04:02:09.034Z,2.21
2018-02-11T04:03:09.058Z,2.1
2018-02-11T04:05:09.079Z,2.07
2018-02-11T04:06:08.848Z,1.99
2018-02-11T04:07:09.100Z,2.12
2018-02-11T04:08:09.113Z,2.07
2018-02-11T04:09:09.138Z,2.07
2018-02-11T04:10:08.899Z,2.03
2018-02-11T04:11:09.162Z,2.07
2018-02-11T04:12:09.177Z,2.17
2018-02-11T04:13:23.602Z,2.07
2018-02-11T04:14:08.958Z,1.99
2018-02-11T04:15:09.004Z,2
2018-02-11T04:16:09.342Z,2.07
2018-02-11T04:17:09.242Z,2.06
2018-02-11T04:18:23.920Z,2.05
2018-02-11T04:19:09.277Z,2.07
2018-02-11T04:20:09.295Z,2.06
2018-02-11T04:21:09.302Z,1.99
2018-02-11T04:22:09.304Z,1.91
2018-02-11T04:23:09.065Z,1.98
2018-02-11T04:24:09.324Z,2.05
2018-02-11T04:25:09.101Z,2.03
2018-02-11T04:26:09.394Z,2.02
2018-02-11T04:27:09.380Z,2.03
2018-02-11T04:28:24.065Z,1.95
2018-02-11T04:29:09.399Z,1.98
2018-02-11T04:31:09.419Z,1.91
2018-02-11T04:32:09.448Z,1.84
2018-02-11T04:33:09.464Z,1.91
2018-02-11T04:34:09.467Z,2
2018-02-11T04:35:09.483Z,1.99
2018-02-11T04:36:09.248Z,1.98
2018-02-11T04:37:09.247Z,1.88
2018-02-11T04:38:09.524Z,1.83
2018-02-11T04:39:09.547Z,2
2018-02-11T04:40:09.552Z,2.05
2018-02-11T04:42:09.557Z,2
2018-02-11T04:43:09.612Z,2
2018-02-11T04:44:24.273Z,1.88
2018-02-11T04:46:09.126Z,1.9
2018-02-11T04:47:09.643Z,1.87
2018-02-11T04:48:09.393Z,1.77
2018-02-11T04:49:09.660Z,1.83
2018-02-11T04:50:09.686Z,1.84
2018-02-11T04:51:09.191Z,1.83
2018-02-11T04:52:09.472Z,1.87
2018-02-11T04:53:09.467Z,1.8
2018-02-11T04:54:09.748Z,1.81
2018-02-11T04:55:09.734Z,1.9
2018-02-11T04:56:09.522Z,1.95
2018-02-11T04:57:09.522Z,2.06
2018-02-11T04:58:09.556Z,2
2018-02-11T04:59:09.570Z,2.06
2018-02-11T05:00:24.487Z,2.02
2018-02-11T05:01:09.842Z,2.06
2018-02-11T05:02:09.864Z,2.09
2018-02-11T05:03:09.614Z,2.12
2018-02-11T05:04:09.623Z,2.16
2018-02-11T05:05:09.897Z,2.14
2018-02-11T05:06:09.892Z,2.09
2018-02-11T05:07:24.598Z,2.1
2018-02-11T05:08:09.929Z,1.99
2018-02-11T05:09:09.981Z,2.14
2018-02-11T05:10:09.958Z,2.12
2018-02-11T05:11:09.722Z,2.16
2018-02-11T05:12:09.978Z,2.1
2018-02-11T05:13:24.674Z,2.24
2018-02-11T05:14:10.012Z,2.14
2018-02-11T05:15:10.019Z,2.18
2018-02-11T05:16:24.708Z,2.31
2018-02-11T05:17:09.793Z,2.31
2018-02-11T05:18:10.065Z,2.34
2018-02-11T05:19:10.066Z,2.35
2018-02-11T05:20:24.500Z,2.36
2018-02-11T05:21:10.100Z,2.3
2018-02-11T05:22:09.877Z,2.28
2018-02-11T05:23:10.129Z,2.31
2018-02-11T05:24:09.640Z,2.36
2018-02-11T05:25:24.825Z,2.41
2018-02-11T05:26:09.915Z,2.36
2018-02-11T05:27:10.190Z,2.34
2018-02-11T05:28:10.194Z,2.41
2018-02-11T05:29:10.207Z,2.41
2018-02-11T05:30:09.963Z,2.45
2018-02-11T05:31:24.906Z,2.35
2018-02-11T05:32:10.250Z,2.48
2018-02-11T05:33:10.264Z,2.41
2018-02-11T05:34:10.031Z,2.46
2018-02-11T05:35:10.050Z,2.38
2018-02-11T05:36:10.037Z,2.36
2018-02-11T05:37:10.304Z,2.36
2018-02-11T05:38:10.328Z,2.43
2018-02-11T05:39:10.100Z,2.39
2018-02-11T05:40:10.376Z,2.35
2018-02-11T05:41:10.120Z,2.43
2018-02-11T05:42:10.389Z,2.39
2018-02-11T05:43:10.405Z,2.42
2018-02-11T05:44:10.412Z,2.43
2018-02-11T05:45:10.433Z,2.42
2018-02-11T05:46:09.932Z,2.46
2018-02-11T05:47:10.473Z,2.39
2018-02-11T05:48:10.217Z,2.39
2018-02-11T05:49:10.482Z,2.49
2018-02-11T05:50:10.502Z,2.53
2018-02-11T05:51:10.363Z,2.36
2018-02-11T05:52:10.519Z,2.46
2018-02-11T05:53:10.284Z,2.39
2018-02-11T05:54:10.290Z,2.38
2018-02-11T05:55:10.558Z,2.43
2018-02-11T05:56:24.993Z,2.43
2018-02-11T05:57:10.343Z,2.42
2018-02-11T05:58:10.601Z,2.43
2018-02-11T05:59:10.360Z,2.34
2018-02-11T06:00:10.656Z,2.41
2018-02-11T06:01:10.631Z,2.41
2018-02-11T06:02:10.416Z,2.34
2018-02-11T06:03:25.344Z,2.35
2018-02-11T06:04:10.679Z,2.34
2018-02-11T06:05:10.444Z,2.28
2018-02-11T06:06:10.200Z,2.34
2018-02-11T06:07:10.726Z,2.38
2018-02-11T06:08:10.232Z,2.39
2018-02-11T06:09:10.764Z,2.43
2018-02-11T06:10:10.762Z,2.38
2018-02-11T06:11:10.523Z,2.35
2018-02-11T06:12:10.774Z,2.45
2018-02-11T06:13:10.815Z,2.45
2018-02-11T06:14:10.811Z,2.38
2018-02-11T06:15:10.831Z,2.35
2018-02-11T06:16:10.586Z,2.43
2018-02-11T06:17:10.843Z,2.42
2018-02-11T06:18:10.613Z,2.45
2018-02-11T06:19:25.554Z,2.49
2018-02-11T06:20:10.903Z,2.42
2018-02-11T06:21:10.943Z,2.42
2018-02-11T06:22:10.908Z,2.48
2018-02-11T06:23:10.951Z,2.46
2018-02-11T06:24:10.943Z,2.53
2018-02-11T06:25:10.725Z,2.49
2018-02-11T06:26:10.722Z,2.52
2018-02-11T06:27:10.745Z,2.42
2018-02-11T06:28:10.756Z,2.49
2018-02-11T06:29:11.036Z,2.46
2018-02-11T06:30:11.041Z,2.52
2018-02-11T06:31:10.795Z,2.57
2018-02-11T06:32:11.069Z,2.43
2018-02-11T06:33:10.825Z,2.49
2018-02-11T06:34:10.837Z,2.49
2018-02-11T06:35:25.768Z,2.6
2018-02-11T06:36:11.117Z,2.52
2018-02-11T06:37:11.137Z,2.59
2018-02-11T06:38:10.909Z,2.6
2018-02-11T06:39:11.147Z,2.6
2018-02-11T06:40:11.158Z,2.54
2018-02-11T06:42:10.696Z,2.52
2018-02-11T06:43:10.978Z,2.49
2018-02-11T06:44:11.229Z,2.56
2018-02-11T06:45:11.253Z,2.6
2018-02-11T06:46:11.251Z,2.45
2018-02-11T06:47:11.280Z,2.59
2018-02-11T06:48:11.275Z,2.6
2018-02-11T06:49:11.305Z,2.6
2018-02-11T06:50:11.044Z,2.67
2018-02-11T06:51:25.994Z,2.64
2018-02-11T06:52:11.074Z,2.67
2018-02-11T06:53:11.092Z,2.57
2018-02-11T06:54:11.360Z,2.56
2018-02-11T06:55:11.126Z,2.74
2018-02-11T06:56:11.123Z,2.81
2018-02-11T06:57:11.397Z,2.77
2018-02-11T06:58:11.422Z,2.82
2018-02-11T06:59:11.441Z,2.75
2018-02-11T07:00:11.548Z,2.79
2018-02-11T07:01:11.506Z,2.78
2018-02-11T07:02:11.461Z,2.84
2018-02-11T07:03:26.146Z,2.77
2018-02-11T07:04:11.514Z,2.85
2018-02-11T07:05:11.527Z,2.78
2018-02-11T07:06:26.199Z,2.82
2018-02-11T07:07:11.539Z,2.79
2018-02-11T07:09:11.573Z,2.85
2018-02-11T07:10:11.580Z,2.89
2018-02-11T07:12:11.596Z,2.87
2018-02-11T07:13:11.609Z,2.87
2018-02-11T07:14:11.640Z,2.97
2018-02-11T07:15:11.383Z,3.03
2018-02-11T07:16:11.422Z,3.05
2018-02-11T07:17:11.675Z,3.06
2018-02-11T07:18:11.436Z,3.03
2018-02-11T07:19:11.696Z,3.05
2018-02-11T07:20:11.695Z,3.1
2018-02-11T07:21:11.476Z,3.2
2018-02-11T07:22:11.499Z,3.08
2018-02-11T07:23:26.433Z,3.15
2018-02-11T07:24:11.764Z,3.18
2018-02-11T07:25:11.546Z,3.2
2018-02-11T07:26:11.808Z,3.17
2018-02-11T07:27:11.817Z,3.17
2018-02-11T07:28:11.823Z,3.18
2018-02-11T07:29:11.594Z,3.17
2018-02-11T07:30:11.870Z,3.15
2018-02-11T07:31:11.632Z,3.21
2018-02-11T07:32:11.636Z,3.26
2018-02-11T07:33:11.915Z,3.29
2018-02-11T07:34:11.663Z,3.36
2018-02-11T07:35:11.672Z,3.39
2018-02-11T07:36:11.949Z,3.4
2018-02-11T07:37:11.958Z,3.43
2018-02-11T07:38:26.638Z,3.57
2018-02-11T07:39:11.994Z,3.6
2018-02-11T07:40:11.489Z,3.65
2018-02-11T07:41:12.016Z,3.6
2018-02-11T07:42:12.115Z,3.65
2018-02-11T07:43:12.032Z,3.6
2018-02-11T07:44:11.801Z,3.72
2018-02-11T07:45:12.065Z,3.78
2018-02-11T07:46:12.082Z,3.75
2018-02-11T07:47:11.845Z,3.86
2018-02-11T07:48:12.207Z,3.86
2018-02-11T07:49:12.123Z,3.88
2018-02-11T07:50:12.124Z,3.93
2018-02-11T07:51:12.140Z,3.9
2018-02-11T07:52:11.920Z,4
2018-02-11T07:53:11.939Z,4.04
2018-02-11T07:55:12.215Z,4.26
2018-02-11T07:56:11.957Z,4.42
2018-02-11T07:57:12.235Z,4.37
2018-02-11T07:58:26.930Z,4.5
2018-02-11T07:59:12.287Z,4.62
2018-02-11T08:00:12.039Z,4.66
2018-02-11T08:01:12.318Z,4.84
2018-02-11T08:02:12.328Z,4.78
2018-02-11T08:03:12.344Z,4.77
2018-02-11T08:04:12.418Z,4.66
2018-02-11T08:05:12.109Z,4.69
2018-02-11T08:06:27.061Z,4.63
2018-02-11T08:07:12.386Z,4.62
2018-02-11T08:08:12.420Z,4.54
2018-02-11T08:09:12.173Z,4.5
2018-02-11T08:10:26.860Z,4.5
2018-02-11T08:11:12.546Z,4.4
2018-02-11T08:12:12.463Z,4.33
2018-02-11T08:13:12.498Z,4.34
2018-02-11T08:14:12.250Z,4.24
2018-02-11T08:15:12.526Z,4.22
2018-02-11T08:16:12.537Z,4.27
2018-02-11T08:17:12.311Z,4.24
2018-02-11T08:18:12.599Z,4.12
2018-02-11T08:19:12.587Z,4.18
2018-02-11T08:20:12.356Z,4.05
2018-02-11T08:21:12.621Z,4
2018-02-11T08:22:12.628Z,3.94
2018-02-11T08:23:12.648Z,3.88
2018-02-11T08:24:12.663Z,4
2018-02-11T08:25:12.668Z,3.83
2018-02-11T08:26:27.371Z,3.98
2018-02-11T08:27:12.696Z,3.88
2018-02-11T08:28:12.484Z,3.93
2018-02-11T08:29:12.741Z,3.88
2018-02-11T08:30:12.761Z,3.96
2018-02-11T08:31:12.769Z,3.97
2018-02-11T08:32:12.779Z,4.06
2018-02-11T08:33:12.798Z,4.06
2018-02-11T08:34:12.812Z,4.15
2018-02-11T08:35:12.899Z,4.26
2018-02-11T08:36:27.528Z,4.2
2018-02-11T08:37:12.855Z,4.33
2018-02-11T08:38:12.932Z,4.33
2018-02-11T08:39:12.896Z,4.42
2018-02-11T08:41:27.341Z,4.58
2018-02-11T08:42:12.693Z,4.65
2018-02-11T08:43:12.702Z,4.72
2018-02-11T08:44:12.969Z,4.67
2018-02-11T08:45:27.405Z,4.58
2018-02-11T08:47:13.019Z,4.36
2018-02-11T08:48:13.042Z,4.4
2018-02-11T08:49:27.466Z,4.3
2018-02-11T08:50:12.822Z,4.22
2018-02-11T08:51:13.101Z,4.29
2018-02-11T08:52:13.104Z,4.16
2018-02-11T08:53:13.147Z,4.18
2018-02-11T08:54:12.877Z,4.14
2018-02-11T08:55:12.895Z,4.15
2018-02-11T08:56:13.166Z,4.12
2018-02-11T08:57:13.191Z,4.09
2018-02-11T08:58:12.957Z,4
2018-02-11T08:59:13.213Z,4.11
2018-02-11T09:00:27.896Z,4.14
2018-02-11T09:01:13.250Z,4.04
2018-02-11T09:03:13.280Z,4.36
2018-02-11T09:05:13.060Z,4.4
2018-02-11T09:06:13.339Z,4.52
2018-02-11T09:07:13.068Z,4.63
2018-02-11T09:08:13.354Z,4.62
2018-02-11T09:09:13.123Z,4.69
2018-02-11T09:11:13.396Z,4.66
2018-02-11T09:12:13.425Z,4.69
2018-02-11T09:13:27.954Z,4.72
2018-02-11T09:14:13.453Z,4.73
2018-02-11T09:15:13.463Z,4.65
2018-02-11T09:16:13.491Z,4.8
2018-02-11T09:17:13.489Z,4.65
2018-02-11T09:18:13.253Z,4.8
2018-02-11T09:19:28.197Z,4.8
2018-02-11T09:21:13.364Z,4.92
2018-02-11T09:23:28.255Z,4.88
2018-02-11T09:24:13.606Z,4.86
2018-02-11T09:26:13.126Z,4.96
2018-02-11T09:27:13.403Z,4.92
2018-02-11T09:28:13.412Z,5
2018-02-11T09:29:28.345Z,5.17
2018-02-11T09:30:13.195Z,5.27
2018-02-11T09:31:13.701Z,5.22
2018-02-11T09:32:13.749Z,5.21
2018-02-11T09:33:13.746Z,5.22
2018-02-11T09:34:13.766Z,5.3
2018-02-11T09:35:13.283Z,5.38
2018-02-11T09:36:13.527Z,5.4
2018-02-11T09:37:13.818Z,5.38
2018-02-11T09:38:28.493Z,5.43
2018-02-11T09:39:13.841Z,5.48
2018-02-11T09:40:13.364Z,5.42
2018-02-11T09:41:13.880Z,5.49
2018-02-11T09:42:13.640Z,5.38
2018-02-11T09:43:13.898Z,5.58
2018-02-11T09:44:13.925Z,5.64
2018-02-11T09:46:13.953Z,5.48
2018-02-11T09:47:13.972Z,5.48
2018-02-11T09:48:28.664Z,5.46
2018-02-11T09:49:14.018Z,5.51
2018-02-11T09:50:14.009Z,5.53
2018-02-11T09:51:13.794Z,5.49
2018-02-11T09:52:14.061Z,5.6
2018-02-11T09:53:14.076Z,5.61
2018-02-11T09:54:28.496Z,5.71
2018-02-11T09:55:14.120Z,5.75
2018-02-11T09:56:14.114Z,5.65
2018-02-11T09:57:14.142Z,5.83
2018-02-11T09:58:14.154Z,5.82
2018-02-11T09:59:14.146Z,5.91
2018-02-11T10:00:14.181Z,5.91
2018-02-11T10:01:28.870Z,5.85
2018-02-11T10:02:13.708Z,5.99
2018-02-11T10:04:13.989Z,5.96
2018-02-11T10:05:14.293Z,5.99
2018-02-11T10:06:14.034Z,6
2018-02-11T10:07:28.968Z,5.86
2018-02-11T10:09:14.072Z,5.89
2018-02-11T10:10:14.414Z,5.91
2018-02-11T10:11:14.374Z,5.82
2018-02-11T10:12:14.379Z,5.81
2018-02-11T10:13:14.424Z,5.76
2018-02-11T10:14:14.163Z,5.89
2018-02-11T10:15:14.427Z,5.79
2018-02-11T10:16:29.119Z,5.82
2018-02-11T10:17:14.464Z,5.93
2018-02-11T10:18:14.568Z,5.94
2018-02-11T10:19:14.492Z,5.91
2018-02-11T10:20:14.508Z,5.94
2018-02-11T10:21:14.270Z,5.99
2018-02-11T10:22:14.572Z,6.03
2018-02-11T10:23:14.311Z,6.09
2018-02-11T10:24:14.316Z,6.09
2018-02-11T10:25:14.590Z,6.19
2018-02-11T10:26:14.616Z,6.17
2018-02-11T10:27:14.370Z,6.22
2018-02-11T10:28:14.634Z,6.31
2018-02-11T10:29:14.673Z,6.3
2018-02-11T10:30:14.408Z,6.27
2018-02-11T10:31:14.692Z,6.38
2018-02-11T10:32:14.712Z,6.34
2018-02-11T10:33:14.747Z,6.48
2018-02-11T10:34:14.490Z,6.37
2018-02-11T10:35:14.767Z,6.4
2018-02-11T10:36:14.767Z,6.48
2018-02-11T10:37:14.799Z,6.49
2018-02-11T10:39:14.585Z,6.55
2018-02-11T10:40:14.856Z,6.61
2018-02-11T10:41:14.588Z,6.58
2018-02-11T10:42:14.887Z,6.55
2018-02-11T10:43:14.630Z,6.41
2018-02-11T10:44:14.966Z,6.51
2018-02-11T10:45:29.350Z,6.61
2018-02-11T10:46:14.939Z,6.59
2018-02-11T10:47:14.961Z,6.61
2018-02-11T10:48:29.387Z,6.66
2018-02-11T10:49:15.009Z,6.56
2018-02-11T10:50:14.771Z,6.69
2018-02-11T10:51:14.784Z,6.71
2018-02-11T10:52:15.042Z,6.79
2018-02-11T10:53:15.073Z,6.85
2018-02-11T10:54:15.075Z,6.95
2018-02-11T10:56:29.780Z,6.98
2018-02-11T10:57:15.132Z,6.92
2018-02-11T10:58:14.901Z,6.99
2018-02-11T11:00:14.919Z,7.07
2018-02-11T11:01:15.202Z,7.03
2018-02-11T11:02:15.231Z,7.07
2018-02-11T11:03:14.728Z,6.94
2018-02-11T11:04:29.923Z,6.88
2018-02-11T11:05:15.272Z,6.98
2018-02-11T11:06:15.278Z,6.84
2018-02-11T11:08:15.298Z,6.95
2018-02-11T11:09:15.348Z,6.95
2018-02-11T11:10:15.356Z,6.95
2018-02-11T11:11:15.383Z,6.92
2018-02-11T11:12:30.053Z,6.84
2018-02-11T11:13:15.412Z,6.84
2018-02-11T11:14:15.454Z,6.85
2018-02-11T11:15:15.436Z,6.91
2018-02-11T11:16:15.464Z,6.95
2018-02-11T11:17:15.478Z,6.95
2018-02-11T11:18:15.224Z,6.89
2018-02-11T11:19:15.519Z,6.81
2018-02-11T11:20:29.942Z,6.62
2018-02-11T11:21:30.219Z,6.66
2018-02-11T11:22:30.228Z,6.64
2018-02-11T11:23:15.328Z,6.58
2018-02-11T11:24:15.587Z,6.44
2018-02-11T11:25:15.594Z,6.36
2018-02-11T11:26:15.417Z,6.44
2018-02-11T11:27:15.637Z,6.27
2018-02-11T11:28:15.673Z,6.36
2018-02-11T11:29:15.430Z,6.31
2018-02-11T11:30:15.684Z,6.34
2018-02-11T11:31:15.722Z,6.38
2018-02-11T11:32:15.744Z,6.4
2018-02-11T11:33:15.489Z,6.37
2018-02-11T11:34:15.508Z,6.28
2018-02-11T11:35:15.787Z,6.33
2018-02-11T11:36:30.469Z,6.31
2018-02-11T11:38:15.575Z,6.27
2018-02-11T11:39:30.257Z,6.3
2018-02-11T11:40:15.963Z,6.25
2018-02-11T11:41:15.887Z,6.28
2018-02-11T11:42:15.642Z,6.43
2018-02-11T11:43:15.914Z,6.28
2018-02-11T11:44:15.686Z,6.27
2018-02-11T11:45:15.943Z,6.19
2018-02-11T11:46:15.942Z,6.15
2018-02-11T11:47:15.983Z,6.21
2018-02-11T11:48:15.744Z,6.18
2018-02-11T11:49:15.512Z,6.06
2018-02-11T11:51:30.721Z,6.11
2018-02-11T11:52:16.086Z,6.09
2018-02-11T11:53:16.071Z,6.01
2018-02-11T11:54:16.106Z,6.08
2018-02-11T11:55:16.132Z,6.09
2018-02-11T11:56:16.153Z,6.11
2018-02-11T11:57:16.145Z,6.09
2018-02-11T11:58:30.581Z,6.09
2018-02-11T11:59:15.676Z,6.15
2018-02-11T12:00:16.207Z,6.19
2018-02-11T12:01:16.210Z,6.34
2018-02-11T12:02:30.914Z,6.31
2018-02-11T12:03:16.243Z,6.38
2018-02-11T12:04:16.266Z,6.43
2018-02-11T12:05:16.280Z,6.41
2018-02-11T12:06:16.301Z,6.31
2018-02-11T12:07:16.297Z,6.25
2018-02-11T12:08:16.340Z,6.19
2018-02-11T12:09:16.077Z,6.19
2018-02-11T12:10:16.117Z,6.18
2018-02-11T12:11:16.117Z,6.15
2018-02-11T12:12:16.417Z,6.04
2018-02-11T12:13:16.203Z,6.27
2018-02-11T12:14:16.434Z,6.15
2018-02-11T12:15:16.201Z,6.06
2018-02-11T12:16:16.203Z,6.11
2018-02-11T12:17:15.962Z,6.08
2018-02-11T12:18:16.493Z,6.25
2018-02-11T12:19:16.493Z,6.17
2018-02-11T12:20:16.276Z,6.19
2018-02-11T12:21:16.531Z,6.19
2018-02-11T12:22:16.571Z,6.21
2018-02-11T12:23:31.247Z,6.14
2018-02-11T12:24:16.626Z,6.14
2018-02-11T12:25:16.622Z,6.11
2018-02-11T12:26:16.624Z,6.17
2018-02-11T12:27:16.652Z,6.19
2018-02-11T12:28:16.682Z,6.27
2018-02-11T12:29:31.359Z,6.17
2018-02-11T12:30:16.193Z,6.19
2018-02-11T12:31:16.724Z,6.17
2018-02-11T12:32:16.487Z,6.14
2018-02-11T12:33:16.734Z,6
2018-02-11T12:34:16.757Z,6.01
2018-02-11T12:36:16.798Z,6
2018-02-11T12:37:16.817Z,5.99
2018-02-11T12:38:16.831Z,5.86
2018-02-11T12:40:16.868Z,5.79
2018-02-11T12:41:16.852Z,5.75
2018-02-11T12:42:16.638Z,5.79
2018-02-11T12:43:16.921Z,5.74
2018-02-11T12:44:16.933Z,5.72
2018-02-11T12:45:16.946Z,5.81
2018-02-11T12:46:16.956Z,5.74
2018-02-11T12:47:16.974Z,5.54
2018-02-11T12:48:17.004Z,5.54
2018-02-11T12:49:16.743Z,5.45
2018-02-11T12:50:17.024Z,5.45
2018-02-11T12:51:17.053Z,5.39
2018-02-11T12:52:17.049Z,5.35
2018-02-11T12:53:16.563Z,5.24
2018-02-11T12:54:16.840Z,5.15
2018-02-11T12:55:31.764Z,5.15
2018-02-11T12:56:16.867Z,5.13
2018-02-11T12:57:16.877Z,5.09
2018-02-11T12:58:16.896Z,5.09
2018-02-11T12:59:17.166Z,4.96
2018-02-11T13:00:17.193Z,5.06
2018-02-11T13:01:17.196Z,5.1
2018-02-11T13:02:17.230Z,5.09
2018-02-11T13:03:16.974Z,5.2
2018-02-11T13:04:17.248Z,5.07
2018-02-11T13:05:17.009Z,5.12
2018-02-11T13:06:17.283Z,5.1
2018-02-11T13:07:17.288Z,5.1
2018-02-11T13:08:17.310Z,5.13
2018-02-11T13:09:17.329Z,5.15
2018-02-11T13:10:17.375Z,5.21
2018-02-11T13:11:32.134Z,5.13
2018-02-11T13:12:32.055Z,5.13
2018-02-11T13:13:17.134Z,5.17
2018-02-11T13:14:17.424Z,5.12
2018-02-11T13:15:17.177Z,5.1
2018-02-11T13:16:17.435Z,5.12
2018-02-11T13:17:17.473Z,5.15
2018-02-11T13:18:17.465Z,5.18
2018-02-11T13:19:17.499Z,5.25
2018-02-11T13:20:32.167Z,5.04
2018-02-11T13:21:17.523Z,5.07
2018-02-11T13:22:17.556Z,5.07
2018-02-11T13:23:17.573Z,5.04
2018-02-11T13:24:17.565Z,5.07
2018-02-11T13:25:17.587Z,4.92
2018-02-11T13:26:32.279Z,4.89
2018-02-11T13:27:17.614Z,4.86
2018-02-11T13:28:17.647Z,4.85
2018-02-11T13:30:17.682Z,4.91
2018-02-11T13:31:32.346Z,5
2018-02-11T13:32:17.442Z,4.84
2018-02-11T13:33:17.705Z,4.75
2018-02-11T13:34:32.139Z,4.73
2018-02-11T13:35:17.734Z,4.78
2018-02-11T13:36:17.765Z,4.85
2018-02-11T13:37:17.778Z,4.88
2018-02-11T13:38:17.293Z,4.75
2018-02-11T13:39:17.799Z,4.7
2018-02-11T13:40:17.567Z,4.77
2018-02-11T13:41:17.593Z,4.77
2018-02-11T13:42:17.859Z,4.67
2018-02-11T13:43:32.285Z,4.69
2018-02-11T13:44:32.300Z,4.69
2018-02-11T13:45:17.637Z,4.66
2018-02-11T13:47:17.686Z,4.7
2018-02-11T13:48:17.953Z,4.54
2018-02-11T13:49:17.946Z,4.54
2018-02-11T13:50:17.979Z,4.51
2018-02-11T13:51:17.483Z,4.48
2018-02-11T13:52:18.016Z,4.48
2018-02-11T13:53:18.077Z,4.45
2018-02-11T13:54:18.044Z,4.44
2018-02-11T13:55:17.803Z,4.5
2018-02-11T13:56:18.067Z,4.55
2018-02-11T13:57:18.095Z,4.51
2018-02-11T13:58:32.774Z,4.54
2018-02-11T13:59:18.124Z,4.51
2018-02-11T14:00:18.151Z,4.44
2018-02-11T14:01:18.178Z,4.45
2018-02-11T14:02:32.835Z,4.45